createdAt,value
2023-04-25T00:01:53.718Z,9.55
2023-04-25T00:04:23.593Z,9.55
2023-04-25T00:06:56.924Z,9.63
2023-04-25T00:09:26.926Z,9.60
2023-04-25T00:11:56.672Z,9.67
2023-04-25T00:14:26.421Z,9.35
2023-04-25T00:16:56.392Z,9.53
2023-04-25T00:19:27.976Z,9.53
2023-04-25T00:22:00.410Z,9.62
2023-04-25T00:24:30.127Z,9.59
2023-04-25T00:26:59.963Z,9.63
2023-04-25T00:29:29.717Z,9.55
2023-04-25T00:31:59.601Z,9.52
2023-04-25T00:34:29.421Z,9.55
2023-04-25T00:37:02.978Z,9.32
2023-04-25T00:39:32.729Z,9.24
2023-04-25T00:42:03.148Z,9.21
2023-04-25T00:44:34.466Z,9.26
2023-04-25T00:47:06.124Z,9.35
2023-04-25T00:49:36.130Z,9.47
2023-04-25T00:52:08.836Z,9.44
2023-04-25T00:54:38.651Z,9.38
2023-04-25T00:57:08.441Z,9.39
2023-04-25T00:59:40.073Z,9.36
2023-04-25T01:02:10.414Z,9.54
2023-04-25T01:04:40.529Z,9.54
2023-04-25T01:07:13.739Z,9.50
2023-04-25T01:09:43.527Z,9.36
2023-04-25T01:12:13.452Z,9.02
2023-04-25T01:14:43.880Z,9.18
2023-04-25T01:17:13.893Z,9.32
2023-04-25T01:19:43.636Z,9.37
2023-04-25T01:22:16.107Z,9.47
2023-04-25T01:24:46.194Z,9.49
2023-04-25T01:27:16.400Z,9.44
2023-04-25T01:29:46.683Z,9.36
2023-04-25T01:32:17.874Z,9.32
2023-04-25T01:34:47.692Z,9.37
2023-04-25T01:37:21.230Z,9.40
2023-04-25T01:39:51.350Z,9.26
2023-04-25T01:42:22.531Z,9.14
2023-04-25T01:44:52.370Z,9.09
2023-04-25T01:47:22.131Z,8.95
2023-04-25T01:49:52.059Z,8.94
2023-04-25T01:52:24.475Z,8.92
2023-04-25T01:54:56.762Z,8.87
2023-04-25T01:57:26.812Z,8.89
2023-04-25T02:00:02.250Z,8.89
2023-04-25T02:02:44.079Z,8.87
2023-04-25T02:05:26.449Z,9.04
2023-04-25T02:07:59.320Z,9.17
2023-04-25T02:10:30.402Z,9.10
2023-04-25T02:13:16.944Z,9.21
2023-04-25T02:16:14.333Z,9.22
2023-04-25T02:18:44.141Z,9.15
2023-04-25T02:21:13.856Z,9.19
2023-04-25T02:23:50.121Z,9.26
2023-04-25T02:26:20.070Z,9.10
2023-04-25T02:28:49.786Z,9.29
2023-04-25T02:31:19.601Z,9.18
2023-04-25T02:33:49.639Z,9.19
2023-04-25T02:36:19.661Z,9.31
2023-04-25T02:38:51.973Z,9.32
2023-04-25T02:41:24.409Z,9.27
2023-04-25T02:43:54.141Z,9.31
2023-04-25T02:46:37.876Z,9.30
2023-04-25T02:49:09.552Z,9.29
2023-04-25T02:51:39.458Z,9.28
2023-04-25T02:54:11.885Z,9.31
2023-04-25T02:56:45.730Z,9.28
2023-04-25T02:59:21.010Z,9.25
2023-04-25T03:01:50.944Z,9.28
2023-04-25T03:04:20.783Z,9.16
2023-04-25T03:06:51.181Z,9.22
2023-04-25T03:09:26.483Z,9.27
2023-04-25T03:11:56.322Z,9.21
2023-04-25T03:14:26.747Z,9.19
2023-04-25T03:16:56.732Z,9.18
2023-04-25T03:19:26.936Z,9.30
2023-04-25T03:21:56.693Z,9.26
2023-04-25T03:24:29.373Z,9.36
2023-04-25T03:26:59.124Z,9.40
2023-04-25T03:29:29.908Z,9.43
2023-04-25T03:32:00.397Z,9.46
2023-04-25T03:34:30.239Z,9.50
2023-04-25T03:37:01.140Z,9.52
2023-04-25T03:39:34.134Z,9.61
2023-04-25T03:42:04.079Z,9.57
2023-04-25T03:44:37.193Z,9.45
2023-04-25T03:47:07.366Z,9.47
2023-04-25T03:49:38.696Z,9.48
2023-04-25T03:52:09.814Z,9.43
2023-04-25T03:54:45.108Z,9.44
2023-04-25T03:57:18.651Z,9.36
2023-04-25T03:59:48.387Z,9.27
2023-04-25T04:02:19.357Z,9.25
2023-04-25T04:04:49.733Z,9.21
2023-04-25T04:07:20.106Z,9.20
2023-04-25T04:09:55.927Z,9.22
2023-04-25T04:12:34.114Z,9.13
2023-04-25T04:15:06.885Z,9.24
2023-04-25T04:17:37.238Z,9.14
2023-04-25T04:20:09.443Z,9.21
2023-04-25T04:22:39.440Z,9.18
2023-04-25T04:25:15.730Z,9.19
2023-04-25T04:28:08.319Z,9.15
2023-04-25T04:30:48.157Z,9.10
2023-04-25T04:33:20.081Z,9.20
2023-04-25T04:35:54.643Z,8.94
2023-04-25T04:38:25.119Z,9.20
2023-04-25T04:40:59.080Z,9.19
2023-04-25T04:43:36.717Z,9.22
2023-04-25T04:46:25.812Z,9.18
2023-04-25T04:49:21.810Z,9.12
2023-04-25T04:52:14.188Z,9.10
2023-04-25T04:55:06.597Z,9.05
2023-04-25T04:57:55.034Z,9.14
2023-04-25T05:00:36.853Z,9.14
2023-04-25T05:03:25.416Z,9.03
2023-04-25T05:06:09.958Z,9.04
2023-04-25T05:08:56.571Z,8.77
2023-04-25T05:11:34.950Z,8.84
2023-04-25T05:14:19.407Z,8.82
2023-04-25T05:17:19.628Z,8.72
2023-04-25T05:20:10.393Z,8.70
2023-04-25T05:23:05.227Z,8.76
2023-04-25T05:25:44.883Z,8.77
2023-04-25T05:28:33.013Z,8.83
2023-04-25T05:31:34.545Z,8.72
2023-04-25T05:34:08.780Z,8.72
2023-04-25T05:36:54.382Z,8.70
2023-04-25T05:39:24.172Z,8.70
2023-04-25T05:42:18.356Z,8.85
2023-04-25T05:45:12.157Z,8.76
2023-04-25T05:48:14.474Z,8.85
2023-04-25T05:51:00.207Z,8.87
2023-04-25T05:53:46.969Z,8.84
2023-04-25T05:56:18.185Z,8.83
2023-04-25T05:58:49.803Z,8.92
2023-04-25T06:01:19.761Z,8.96
2023-04-25T06:03:53.129Z,9.12
2023-04-25T06:06:23.302Z,9.07
2023-04-25T06:08:53.099Z,9.18
2023-04-25T06:11:22.991Z,9.26
2023-04-25T06:13:53.104Z,9.27
2023-04-25T06:16:23.129Z,9.29
2023-04-25T06:18:55.607Z,9.27
2023-04-25T06:21:25.345Z,9.30
2023-04-25T06:23:55.148Z,9.38
2023-04-25T06:26:26.944Z,9.36
2023-04-25T06:28:56.790Z,9.33
2023-04-25T06:31:26.595Z,9.38
2023-04-25T06:34:01.138Z,9.52
2023-04-25T06:36:32.816Z,9.73
2023-04-25T06:39:10.213Z,9.65
2023-04-25T06:41:40.111Z,9.66
2023-04-25T06:44:13.607Z,9.80
2023-04-25T06:46:52.505Z,9.72
2023-04-25T06:49:25.537Z,9.66
2023-04-25T06:51:55.360Z,9.63
2023-04-25T06:54:26.044Z,9.28
2023-04-25T06:57:04.202Z,9.32
2023-04-25T06:59:36.479Z,9.33
2023-04-25T07:02:07.429Z,9.40
2023-04-25T07:04:40.189Z,9.38
2023-04-25T07:07:10.290Z,9.39
2023-04-25T07:09:49.341Z,9.40
2023-04-25T07:12:19.149Z,9.50
2023-04-25T07:14:48.963Z,9.47
2023-04-25T07:17:19.223Z,9.43
2023-04-25T07:19:52.606Z,9.31
2023-04-25T07:22:22.415Z,9.49
2023-04-25T07:24:54.342Z,9.58
2023-04-25T07:27:25.773Z,9.63
2023-04-25T07:30:00.391Z,9.71
2023-04-25T07:32:31.003Z,9.69
2023-04-25T07:35:04.497Z,9.71
2023-04-25T07:37:34.307Z,9.70
2023-04-25T07:40:14.090Z,9.87
2023-04-25T07:42:49.494Z,9.85
2023-04-25T07:45:25.563Z,10.05
2023-04-25T07:47:56.065Z,9.83
2023-04-25T07:50:28.835Z,10.15
2023-04-25T07:52:58.889Z,9.83
2023-04-25T07:55:37.630Z,9.68
2023-04-25T07:58:16.668Z,10.27
2023-04-25T08:00:49.426Z,10.45
2023-04-25T08:03:33.383Z,10.14
2023-04-25T08:06:08.332Z,10.33
2023-04-25T08:08:45.804Z,9.99
2023-04-25T08:11:20.095Z,10.03
2023-04-25T08:13:49.809Z,10.02
2023-04-25T08:16:19.816Z,9.99
2023-04-25T08:18:50.470Z,10.13
2023-04-25T08:21:23.321Z,10.19
2023-04-25T08:23:53.310Z,10.42
2023-04-25T08:26:28.328Z,10.57
2023-04-25T08:28:58.361Z,10.75
2023-04-25T08:31:28.241Z,10.85
2023-04-25T08:34:01.862Z,10.70
2023-04-25T08:37:00.355Z,10.42
2023-04-25T08:39:43.338Z,10.27
2023-04-25T08:42:28.157Z,10.11
2023-04-25T08:44:58.277Z,10.06
2023-04-25T08:47:34.216Z,9.97
2023-04-25T08:50:06.593Z,9.78
2023-04-25T08:52:41.461Z,10.01
2023-04-25T08:55:13.443Z,10.13
2023-04-25T08:57:44.393Z,9.98
2023-04-25T09:00:15.887Z,10.33
2023-04-25T09:02:47.742Z,10.40
2023-04-25T09:05:20.218Z,10.53
2023-04-25T09:07:54.128Z,10.66
2023-04-25T09:10:24.011Z,10.63
2023-04-25T09:13:07.464Z,10.59
2023-04-25T09:15:54.762Z,11.06
2023-04-25T09:18:38.838Z,10.98
2023-04-25T09:21:14.138Z,11.28
2023-04-25T09:23:50.942Z,11.66
2023-04-25T09:26:22.563Z,11.79
2023-04-25T09:29:08.305Z,11.62
2023-04-25T09:31:40.919Z,11.67
2023-04-25T09:34:16.832Z,11.39
2023-04-25T09:36:51.826Z,11.39
2023-04-25T09:40:04.112Z,11.28
2023-04-25T09:42:36.609Z,11.28
2023-04-25T09:45:07.730Z,11.32
2023-04-25T09:47:45.131Z,11.29
2023-04-25T09:50:20.778Z,10.94
2023-04-25T09:53:08.172Z,10.94
2023-04-25T09:56:10.225Z,11.41
2023-04-25T09:58:41.357Z,11.56
2023-04-25T10:01:13.976Z,11.06
2023-04-25T10:04:01.770Z,11.35
2023-04-25T10:06:46.534Z,11.79
2023-04-25T10:09:19.726Z,12.00
2023-04-25T10:11:52.541Z,12.10
2023-04-25T10:14:23.448Z,12.18
2023-04-25T10:16:54.845Z,12.35
2023-04-25T10:19:25.603Z,12.19
2023-04-25T10:21:59.715Z,11.94
2023-04-25T10:24:30.817Z,11.69
2023-04-25T10:27:03.896Z,11.58
2023-04-25T10:29:33.784Z,11.87
2023-04-25T10:32:03.661Z,12.04
2023-04-25T10:34:44.022Z,12.21
2023-04-25T10:37:14.481Z,12.16
2023-04-25T10:39:46.014Z,12.50
2023-04-25T10:42:18.714Z,12.64
2023-04-25T10:45:05.549Z,12.49
2023-04-25T10:47:39.617Z,12.04
2023-04-25T10:50:11.828Z,11.72
2023-04-25T10:52:42.995Z,11.10
2023-04-25T10:55:13.177Z,11.34
2023-04-25T10:57:48.589Z,11.16
2023-04-25T11:00:20.785Z,11.00
2023-04-25T11:02:52.325Z,10.89
2023-04-25T11:05:30.872Z,10.83
2023-04-25T11:08:07.554Z,10.96
2023-04-25T11:10:39.091Z,10.91
2023-04-25T11:13:11.426Z,10.97
2023-04-25T11:15:41.269Z,11.02
2023-04-25T11:18:11.208Z,11.48
2023-04-25T11:20:41.376Z,11.57
2023-04-25T11:23:11.733Z,11.65
2023-04-25T11:25:42.340Z,11.55
2023-04-25T11:28:14.725Z,11.87
2023-04-25T11:30:52.230Z,11.93
2023-04-25T11:33:26.643Z,12.13
2023-04-25T11:35:58.169Z,12.28
2023-04-25T11:38:29.612Z,12.49
2023-04-25T11:40:59.644Z,12.36
2023-04-25T11:43:32.515Z,12.43
2023-04-25T11:46:02.423Z,12.56
2023-04-25T11:48:41.175Z,12.73
2023-04-25T11:51:11.552Z,13.03
2023-04-25T11:53:45.249Z,13.05
2023-04-25T11:56:15.257Z,13.16
2023-04-25T11:59:04.641Z,13.37
2023-04-25T12:01:36.459Z,13.29
2023-04-25T12:04:17.088Z,13.51
2023-04-25T12:06:50.325Z,13.59
2023-04-25T12:09:22.735Z,13.49
2023-04-25T12:11:57.122Z,13.45
2023-04-25T12:14:31.090Z,13.66
2023-04-25T12:17:02.251Z,13.61
2023-04-25T12:19:37.257Z,13.48
2023-04-25T12:22:22.282Z,12.86
2023-04-25T12:24:54.323Z,12.57
2023-04-25T12:27:24.099Z,12.03
2023-04-25T12:29:58.390Z,11.15
2023-04-25T12:32:28.415Z,10.64
2023-04-25T12:34:58.209Z,10.32
2023-04-25T12:37:28.096Z,10.40
2023-04-25T12:39:57.805Z,10.54
2023-04-25T12:42:27.557Z,10.06
2023-04-25T12:44:59.866Z,10.18
2023-04-25T12:47:29.702Z,10.31
2023-04-25T12:49:59.511Z,10.58
2023-04-25T12:52:29.228Z,10.62
2023-04-25T12:54:58.951Z,10.93
2023-04-25T12:57:28.702Z,11.15
2023-04-25T13:00:01.692Z,11.14
2023-04-25T13:02:31.573Z,11.24
2023-04-25T13:05:01.448Z,11.29
2023-04-25T13:07:31.962Z,11.35
2023-04-25T13:10:04.013Z,11.84
2023-04-25T13:12:33.766Z,12.26
2023-04-25T13:15:06.430Z,12.32
2023-04-25T13:17:36.248Z,12.31
2023-04-25T13:20:09.768Z,12.29
2023-04-25T13:22:40.482Z,12.18
2023-04-25T13:25:11.832Z,11.78
2023-04-25T13:27:41.821Z,11.73
2023-04-25T13:30:15.138Z,11.63
2023-04-25T13:32:45.073Z,11.88
2023-04-25T13:35:16.451Z,11.73
2023-04-25T13:37:46.475Z,10.97
2023-04-25T13:40:16.785Z,10.79
2023-04-25T13:42:46.999Z,10.62
2023-04-25T13:45:19.422Z,10.64
2023-04-25T13:47:49.299Z,10.67
2023-04-25T13:50:19.462Z,10.69
2023-04-25T13:52:49.330Z,10.86
2023-04-25T13:55:19.450Z,11.10
2023-04-25T13:57:49.512Z,11.11
2023-04-25T14:00:22.593Z,11.53
2023-04-25T14:02:52.438Z,11.87
2023-04-25T14:05:22.320Z,12.14
2023-04-25T14:07:52.224Z,12.05
2023-04-25T14:10:21.924Z,11.98
2023-04-25T14:12:51.870Z,12.35
2023-04-25T14:15:24.271Z,12.41
2023-04-25T14:17:54.128Z,12.48
2023-04-25T14:20:25.069Z,12.39
2023-04-25T14:22:55.666Z,11.74
2023-04-25T14:25:25.590Z,12.10
2023-04-25T14:27:55.454Z,11.99
2023-04-25T14:30:27.833Z,12.37
2023-04-25T14:32:58.157Z,12.08
2023-04-25T14:35:27.939Z,12.17
2023-04-25T14:37:57.979Z,12.15
2023-04-25T14:40:27.971Z,12.00
2023-04-25T14:42:58.196Z,11.47
2023-04-25T14:45:30.705Z,11.28
2023-04-25T14:48:00.823Z,11.47
2023-04-25T14:50:30.651Z,11.47
2023-04-25T14:53:01.797Z,11.78
2023-04-25T14:55:31.871Z,11.72
2023-04-25T14:58:02.230Z,11.49
2023-04-25T15:00:34.704Z,11.74
2023-04-25T15:03:04.810Z,11.77
2023-04-25T15:05:34.741Z,11.82
2023-04-25T15:08:06.403Z,11.75
2023-04-25T15:10:36.273Z,11.44
2023-04-25T15:13:06.953Z,11.25
2023-04-25T15:15:39.286Z,11.07
2023-04-25T15:18:09.053Z,10.82
2023-04-25T15:20:38.871Z,10.77
2023-04-25T15:23:08.807Z,10.72
2023-04-25T15:25:38.537Z,10.85
2023-04-25T15:28:08.379Z,10.85
2023-04-25T15:30:41.256Z,11.04
2023-04-25T15:33:11.093Z,11.19
2023-04-25T15:35:40.981Z,11.34
2023-04-25T15:38:12.428Z,11.37
2023-04-25T15:40:42.189Z,11.44
2023-04-25T15:43:16.192Z,11.41
2023-04-25T15:45:48.827Z,11.41
2023-04-25T15:48:18.575Z,11.09
2023-04-25T15:50:48.452Z,11.24
2023-04-25T15:53:18.260Z,11.39
2023-04-25T15:55:48.241Z,11.53
2023-04-25T15:58:18.081Z,11.39
2023-04-25T16:00:51.926Z,11.60
2023-04-25T16:03:22.394Z,11.53
2023-04-25T16:05:52.991Z,11.34
2023-04-25T16:08:22.736Z,11.06
2023-04-25T16:10:52.941Z,10.87
2023-04-25T16:13:22.911Z,10.98
2023-04-25T16:15:55.287Z,10.70
2023-04-25T16:18:25.164Z,10.25
2023-04-25T16:20:55.029Z,10.18
2023-04-25T16:23:26.622Z,10.12
2023-04-25T16:25:56.385Z,10.29
2023-04-25T16:28:26.136Z,10.22
2023-04-25T16:30:58.494Z,10.26
2023-04-25T16:33:28.226Z,10.05
2023-04-25T16:35:58.237Z,10.01
2023-04-25T16:38:28.030Z,9.97
2023-04-25T16:40:57.804Z,10.13
2023-04-25T16:43:27.662Z,10.04
2023-04-25T16:46:00.045Z,10.28
2023-04-25T16:48:29.763Z,10.37
2023-04-25T16:50:59.606Z,10.29
2023-04-25T16:53:29.560Z,10.30
2023-04-25T16:55:59.313Z,10.28
2023-04-25T16:58:29.383Z,10.31
2023-04-25T17:01:01.910Z,10.37
2023-04-25T17:03:35.683Z,10.36
2023-04-25T17:06:05.953Z,10.31
2023-04-25T17:08:35.920Z,10.28
2023-04-25T17:11:06.192Z,10.29
2023-04-25T17:13:36.648Z,10.22
2023-04-25T17:16:11.371Z,10.26
2023-04-25T17:18:42.114Z,10.14
2023-04-25T17:21:12.199Z,10.22
2023-04-25T17:23:45.692Z,10.28
2023-04-25T17:26:16.609Z,10.46
2023-04-25T17:28:49.829Z,10.44
2023-04-25T17:31:22.772Z,10.62
2023-04-25T17:33:53.099Z,10.63
2023-04-25T17:36:23.152Z,10.71
2023-04-25T17:38:53.168Z,10.74
2023-04-25T17:41:23.079Z,10.73
2023-04-25T17:43:53.092Z,10.63
2023-04-25T17:46:26.941Z,10.45
2023-04-25T17:48:57.699Z,10.50
2023-04-25T17:51:27.668Z,10.49
2023-04-25T17:53:57.466Z,10.62
2023-04-25T17:56:27.872Z,10.40
2023-04-25T17:58:58.006Z,10.43
2023-04-25T18:01:30.522Z,10.51
2023-04-25T18:04:00.946Z,10.01
2023-04-25T18:06:33.066Z,10.33
2023-04-25T18:09:03.246Z,10.16
2023-04-25T18:11:33.029Z,10.32
2023-04-25T18:14:02.925Z,10.33
2023-04-25T18:16:35.426Z,10.40
2023-04-25T18:19:05.826Z,10.27
2023-04-25T18:21:36.466Z,10.03
2023-04-25T18:24:06.656Z,10.34
2023-04-25T18:26:36.451Z,10.28
2023-04-25T18:29:07.651Z,10.32
2023-04-25T18:31:40.217Z,10.30
2023-04-25T18:34:10.207Z,10.17
2023-04-25T18:36:40.763Z,10.14
2023-04-25T18:39:22.120Z,10.09
2023-04-25T18:41:59.311Z,10.01
2023-04-25T18:44:33.863Z,9.97
2023-04-25T18:47:06.456Z,9.84
2023-04-25T18:49:37.635Z,10.01
2023-04-25T18:52:08.714Z,10.21
2023-04-25T18:54:38.701Z,10.02
2023-04-25T18:57:09.524Z,10.26
2023-04-25T18:59:39.343Z,10.16
2023-04-25T19:02:12.463Z,10.12
2023-04-25T19:04:42.316Z,10.03
2023-04-25T19:07:12.409Z,10.14
2023-04-25T19:09:42.198Z,10.05
2023-04-25T19:12:12.051Z,9.92
2023-04-25T19:14:41.977Z,9.81
2023-04-25T19:17:14.406Z,9.80
2023-04-25T19:19:44.206Z,9.46
2023-04-25T19:22:14.369Z,9.85
2023-04-25T19:24:44.111Z,9.42
2023-04-25T19:27:14.263Z,9.72
2023-04-25T19:29:48.333Z,9.63
2023-04-25T19:32:20.803Z,9.70
2023-04-25T19:34:50.545Z,9.73
2023-04-25T19:37:20.311Z,9.92
2023-04-25T19:39:50.059Z,9.96
2023-04-25T19:42:19.871Z,9.97
2023-04-25T19:44:49.671Z,9.87
2023-04-25T19:47:22.261Z,9.88
2023-04-25T19:49:52.455Z,9.95
2023-04-25T19:52:22.516Z,9.89
2023-04-25T19:54:52.428Z,9.97
2023-04-25T19:57:22.217Z,9.83
2023-04-25T19:59:51.955Z,9.72
2023-04-25T20:02:24.365Z,9.78
2023-04-25T20:04:54.216Z,9.67
2023-04-25T20:07:24.686Z,9.59
2023-04-25T20:09:55.465Z,9.57
2023-04-25T20:12:29.991Z,9.52
2023-04-25T20:15:01.656Z,9.53
2023-04-25T20:17:35.687Z,9.57
2023-04-25T20:20:06.785Z,9.56
2023-04-25T20:22:42.804Z,9.52
2023-04-25T20:25:17.519Z,9.41
2023-04-25T20:27:48.455Z,9.34
2023-04-25T20:30:20.000Z,9.20
2023-04-25T20:32:53.190Z,9.27
2023-04-25T20:35:24.853Z,9.12
2023-04-25T20:37:58.845Z,9.06
2023-04-25T20:40:29.873Z,8.89
2023-04-25T20:43:02.020Z,9.18
2023-04-25T20:45:34.710Z,9.20
2023-04-25T20:48:08.214Z,9.25
2023-04-25T20:50:39.944Z,8.83
2023-04-25T20:53:13.827Z,9.23
2023-04-25T20:55:44.643Z,9.18
2023-04-25T20:58:15.371Z,9.02
2023-04-25T21:00:47.864Z,8.97
2023-04-25T21:03:21.367Z,9.00
2023-04-25T21:05:52.667Z,8.96
2023-04-25T21:08:24.065Z,8.84
2023-04-25T21:10:57.122Z,8.90
2023-04-25T21:13:29.313Z,8.85
2023-04-25T21:16:01.296Z,8.82
2023-04-25T21:18:35.192Z,8.79
2023-04-25T21:21:06.296Z,8.75
2023-04-25T21:23:38.833Z,8.37
2023-04-25T21:26:09.527Z,8.26
2023-04-25T21:28:40.154Z,8.40
2023-04-25T21:31:10.927Z,8.24
2023-04-25T21:33:45.097Z,8.23
2023-04-25T21:36:17.584Z,8.16
2023-04-25T21:38:50.413Z,7.99
2023-04-25T21:41:23.108Z,8.05
2023-04-25T21:43:58.028Z,7.94
2023-04-25T21:46:29.099Z,7.92
2023-04-25T21:49:04.113Z,9.08
2023-04-25T21:51:35.259Z,8.31
2023-04-25T21:54:06.908Z,8.07
2023-04-25T21:56:38.048Z,8.02
2023-04-25T21:59:12.191Z,7.88
2023-04-25T22:01:45.694Z,7.92
2023-04-25T22:04:19.490Z,7.79
2023-04-25T22:06:50.409Z,7.62
2023-04-25T22:09:21.321Z,7.61
2023-04-25T22:11:55.442Z,7.60
2023-04-25T22:14:27.080Z,7.69
2023-04-25T22:16:57.990Z,7.54
2023-04-25T22:19:32.729Z,7.75
2023-04-25T22:22:03.995Z,7.69
2023-04-25T22:24:37.636Z,7.48
2023-04-25T22:27:11.437Z,7.56
2023-04-25T22:29:42.196Z,7.57
2023-04-25T22:32:12.896Z,7.59
2023-04-25T22:34:47.532Z,7.40
2023-04-25T22:37:19.916Z,7.69
2023-04-25T22:39:50.556Z,7.67
2023-04-25T22:42:21.639Z,7.52
2023-04-25T22:44:53.318Z,7.58
2023-04-25T22:47:24.994Z,7.45
2023-04-25T22:49:58.348Z,7.51
2023-04-25T22:52:29.416Z,7.51
2023-04-25T22:54:59.915Z,7.41
2023-04-25T22:57:30.701Z,7.34
2023-04-25T23:00:02.061Z,7.48
2023-04-25T23:02:33.066Z,7.33
2023-04-25T23:05:07.696Z,7.32
2023-04-25T23:07:42.747Z,7.16
2023-04-25T23:10:14.554Z,7.12
2023-04-25T23:12:46.867Z,7.17
2023-04-25T23:15:17.773Z,7.17
2023-04-25T23:17:48.596Z,7.08
2023-04-25T23:20:22.061Z,7.06
2023-04-25T23:22:56.458Z,7.05
2023-04-25T23:25:28.814Z,6.90
2023-04-25T23:27:59.704Z,6.98
2023-04-25T23:30:31.217Z,6.98
2023-04-25T23:33:02.021Z,6.99
2023-04-25T23:35:41.492Z,6.80
2023-04-25T23:38:12.476Z,6.74
2023-04-25T23:40:43.069Z,6.71
2023-04-25T23:43:14.218Z,6.67
2023-04-25T23:45:47.176Z,6.63
2023-04-25T23:48:18.682Z,6.66
2023-04-25T23:50:52.186Z,6.67
2023-04-25T23:53:25.134Z,6.61
2023-04-25T23:55:55.187Z,6.62
2023-04-25T23:58:24.913Z,6.61
